Terminal Aerodrome Forecast
Issued by NWS

Home | Current Version | Previous Version | Text Only | Print | Product List | Glossary On
Versions: 1 2 3 4 5 6 7 8 9 10 11 12 13 14
000
FTUS43 KFGF 190400 AAA
TAFDVL
TAF AMD
KDVL 190430Z 1905/1924 14021G28KT P6SM OVC050
      TEMPO 1906/1908 -SHRA
     FM190800 16015KT P6SM FEW040
     FM191200 27022G29KT P6SM SCT025
      AMD LTD TO CLD VIS AND WIND=

USA.gov is the U.S. government's official web portal to all federal, state and local government web resources and services.